Time;durP1;ratioP1;P1;durP2;ratioP2;P2;SDS_P1;SDS_P2;PMS_P1;PMS_P2;Temp;Humidity;BMP_temperature;BMP_pressure;BME280_temperature;BME280_humidity;BME280_pressure;Samples;Min_cycle;Max_cycle;Signal;HPM_P1;HPM_P2
2022/09/01 00:00:10;;;;;;;28.30;25.40;;;15.40;99.90;;;;;;5041829;28;20451;-83
2022/09/01 00:02:36;;;;;;;30.37;27.10;;;15.30;99.90;;;;;;5041558;28;20532;-82
2022/09/01 00:05:06;;;;;;;28.00;25.00;;;15.30;99.90;;;;;;5040631;28;20457;-83
2022/09/01 00:07:34;;;;;;;27.63;25.13;;;15.30;99.90;;;;;;5039771;28;20505;-83
2022/09/01 00:10:03;;;;;;;25.10;22.40;;;15.30;99.90;;;;;;5040268;28;20494;-83
2022/09/01 00:12:30;;;;;;;25.80;23.40;;;15.40;99.90;;;;;;5040162;28;20510;-83
2022/09/01 00:14:58;;;;;;;25.27;22.70;;;15.40;99.90;;;;;;5039996;28;20464;-83
2022/09/01 00:17:26;;;;;;;25.53;23.20;;;15.40;99.90;;;;;;5040014;28;20474;-83
2022/09/01 00:19:53;;;;;;;24.03;21.63;;;15.30;99.90;;;;;;5039412;28;20491;-83
2022/09/01 00:22:20;;;;;;;25.70;22.27;;;15.40;99.90;;;;;;5040283;28;20463;-83
2022/09/01 00:24:47;;;;;;;25.10;22.60;;;15.40;99.90;;;;;;5039581;28;20948;-83
2022/09/01 00:27:13;;;;;;;25.77;23.30;;;15.40;99.90;;;;;;5039423;28;21011;-83
2022/09/01 00:29:40;;;;;;;26.53;24.03;;;15.30;99.90;;;;;;5039489;28;20454;-83
2022/09/01 00:32:08;;;;;;;29.30;26.07;;;15.40;99.90;;;;;;5039601;28;20483;-83
2022/09/01 00:34:35;;;;;;;28.93;25.97;;;15.30;99.90;;;;;;5039459;28;20451;-83
2022/09/01 00:37:02;;;;;;;31.27;28.10;;;15.30;99.90;;;;;;5039899;28;20466;-83
2022/09/01 00:39:29;;;;;;;31.03;27.93;;;15.30;99.90;;;;;;5039920;28;20533;-83
2022/09/01 00:41:58;;;;;;;35.10;30.97;;;15.30;99.90;;;;;;5039791;28;20456;-83
2022/09/01 00:44:26;;;;;;;33.37;29.77;;;15.30;99.90;;;;;;5040964;28;20457;-82
2022/09/01 00:46:55;;;;;;;33.97;30.07;;;15.30;99.90;;;;;;5040503;28;20479;-83
2022/09/01 00:49:29;;;;;;;31.90;28.63;;;15.30;99.90;;;;;;5039865;28;20683;-83
2022/09/01 00:52:00;;;;;;;31.83;28.43;;;15.30;99.90;;;;;;5040478;28;20492;-83
2022/09/01 00:54:32;;;;;;;33.43;30.07;;;15.30;99.90;;;;;;5040147;28;20458;-82
2022/09/01 00:57:00;;;;;;;32.17;28.77;;;15.30;99.90;;;;;;5040473;28;20469;-83
2022/09/01 00:59:28;;;;;;;31.60;28.40;;;15.30;99.90;;;;;;5039508;28;20457;-83
2022/09/01 01:01:56;;;;;;;30.47;27.13;;;15.30;99.90;;;;;;5040871;28;20798;-83
2022/09/01 01:04:25;;;;;;;30.20;27.17;;;15.30;99.90;;;;;;5039692;28;20459;-83
2022/09/01 01:07:01;;;;;;;32.93;27.60;;;15.30;99.90;;;;;;5039953;28;20476;-83
2022/09/01 01:09:30;;;;;;;32.33;29.10;;;15.30;99.90;;;;;;5039486;28;20485;-83
2022/09/01 01:11:58;;;;;;;31.27;26.90;;;15.20;99.90;;;;;;5039513;28;20577;-83
2022/09/01 01:14:31;;;;;;;30.43;26.80;;;15.30;99.90;;;;;;5040203;28;20526;-83
2022/09/01 01:16:59;;;;;;;26.73;24.03;;;15.30;99.90;;;;;;5039990;28;20483;-83
2022/09/01 01:25:21;;;;;;;28.23;25.33;;;15.20;99.90;;;;;;5039300;28;20429;-83
2022/09/01 01:27:48;;;;;;;30.03;27.00;;;15.20;99.90;;;;;;5039717;28;20473;-83
2022/09/01 01:30:17;;;;;;;32.03;28.57;;;15.20;99.90;;;;;;5039569;28;20453;-83
2022/09/01 01:32:46;;;;;;;29.43;26.60;;;15.20;99.90;;;;;;5039543;28;20573;-83
2022/09/01 01:35:15;;;;;;;28.70;25.77;;;15.20;99.90;;;;;;5038849;28;20541;-83
2022/09/01 01:37:45;;;;;;;30.60;27.50;;;15.20;99.90;;;;;;5038978;28;20474;-83
2022/09/01 01:40:14;;;;;;;30.47;27.30;;;15.20;99.90;;;;;;5040031;28;20653;-83
2022/09/01 01:42:44;;;;;;;30.90;27.63;;;15.10;99.90;;;;;;5039439;28;20452;-83
2022/09/01 01:45:11;;;;;;;32.10;28.80;;;15.10;99.90;;;;;;5039000;28;20451;-83
2022/09/01 01:47:38;;;;;;;32.90;29.37;;;15.10;99.90;;;;;;5038478;28;20479;-83
2022/09/01 01:50:08;;;;;;;28.50;25.33;;;15.10;99.90;;;;;;5038363;28;20986;-83
2022/09/01 01:52:35;;;;;;;29.87;26.90;;;15.10;99.90;;;;;;5038729;28;20489;-83
2022/09/01 01:55:02;;;;;;;31.00;27.60;;;15.10;99.90;;;;;;5038833;28;20451;-83
2022/09/01 01:57:30;;;;;;;29.50;26.20;;;15.00;99.90;;;;;;5038119;28;20481;-83
2022/09/01 01:59:59;;;;;;;30.20;27.30;;;15.00;99.90;;;;;;5038105;28;20513;-83
2022/09/01 02:02:26;;;;;;;31.67;28.37;;;15.00;99.90;;;;;;5038624;28;20462;-83
2022/09/01 02:04:53;;;;;;;30.13;27.27;;;15.00;99.90;;;;;;5041895;28;20462;-82
2022/09/01 02:07:20;;;;;;;31.90;28.80;;;15.00;99.90;;;;;;5045547;28;20543;-82
2022/09/01 02:09:47;;;;;;;29.13;25.97;;;15.00;99.90;;;;;;5046825;28;20462;-82
2022/09/01 02:12:18;;;;;;;31.13;27.93;;;15.00;99.90;;;;;;5046220;28;20488;-82
2022/09/01 02:14:45;;;;;;;32.73;29.43;;;14.90;99.90;;;;;;5047155;28;20455;-82
2022/09/01 02:17:13;;;;;;;32.77;29.30;;;15.00;99.90;;;;;;5046631;28;20466;-82
2022/09/01 02:19:42;;;;;;;31.60;28.37;;;15.00;99.90;;;;;;5046276;28;20458;-82
2022/09/01 02:22:09;;;;;;;33.17;27.60;;;14.90;99.90;;;;;;5047405;28;20446;-82
2022/09/01 02:24:36;;;;;;;31.67;28.50;;;14.90;99.90;;;;;;5046313;28;20456;-82
2022/09/01 02:27:05;;;;;;;32.63;29.60;;;14.90;99.90;;;;;;5046870;28;20471;-82
2022/09/01 02:29:31;;;;;;;31.70;28.70;;;14.90;99.90;;;;;;5045990;28;20446;-82
2022/09/01 02:31:58;;;;;;;35.00;31.50;;;14.80;99.90;;;;;;5047510;28;20507;-83
2022/09/01 02:34:27;;;;;;;37.80;29.97;;;14.90;99.90;;;;;;5046819;28;20524;-83
2022/09/01 02:36:56;;;;;;;30.50;27.23;;;14.80;99.90;;;;;;5047135;28;20504;-82
2022/09/01 02:39:26;;;;;;;32.20;28.93;;;14.80;99.90;;;;;;5045494;28;20457;-82
2022/09/01 02:41:53;;;;;;;30.83;27.70;;;14.80;99.90;;;;;;5047022;28;20473;-82
2022/09/01 02:44:20;;;;;;;32.87;29.50;;;14.80;99.90;;;;;;5046815;28;20457;-82
2022/09/01 02:46:49;;;;;;;33.30;30.07;;;14.80;99.90;;;;;;5047482;28;20508;-82
2022/09/01 02:49:18;;;;;;;33.37;29.97;;;14.70;99.90;;;;;;5050426;28;20973;-82
2022/09/01 02:51:52;;;;;;;30.33;27.27;;;14.70;99.90;;;;;;5050582;28;20484;-83
2022/09/01 02:54:21;;;;;;;37.40;29.40;;;14.70;99.90;;;;;;5050035;28;20481;-82
2022/09/01 02:56:49;;;;;;;34.67;30.00;;;14.70;99.90;;;;;;5050326;28;20477;-82
2022/09/01 02:59:20;;;;;;;32.37;29.27;;;14.70;99.90;;;;;;5050736;28;20464;-82
2022/09/01 03:01:48;;;;;;;32.80;29.47;;;14.70;99.90;;;;;;5038176;28;20459;-82
2022/09/01 03:04:16;;;;;;;30.00;27.23;;;14.70;99.90;;;;;;5035474;28;20457;-82
2022/09/01 03:06:43;;;;;;;29.00;26.23;;;14.70;99.90;;;;;;5035172;28;20856;-82
2022/09/01 03:09:14;;;;;;;30.13;26.13;;;14.70;99.90;;;;;;5034845;28;20450;-82
2022/09/01 03:11:43;;;;;;;28.43;25.53;;;14.60;99.90;;;;;;5035340;28;20453;-82
2022/09/01 03:14:11;;;;;;;28.77;25.80;;;14.60;99.90;;;;;;5035012;28;20453;-83
2022/09/01 03:16:38;;;;;;;28.60;25.70;;;14.60;99.90;;;;;;5034855;28;20523;-82
2022/09/01 03:19:07;;;;;;;30.27;27.17;;;14.60;99.90;;;;;;5034623;28;20879;-82
2022/09/01 03:21:35;;;;;;;30.23;27.23;;;14.60;99.90;;;;;;5035364;28;20459;-83
2022/09/01 03:24:03;;;;;;;30.77;27.20;;;14.60;99.90;;;;;;5034880;28;20969;-82
2022/09/01 03:26:31;;;;;;;28.40;25.33;;;14.50;99.90;;;;;;5034979;28;20848;-82
2022/09/01 03:28:58;;;;;;;27.03;24.23;;;14.50;99.90;;;;;;5034699;28;20820;-82
2022/09/01 03:31:27;;;;;;;26.97;24.07;;;14.50;99.90;;;;;;5035269;28;20454;-82
2022/09/01 03:33:55;;;;;;;28.37;25.37;;;14.50;99.90;;;;;;5034818;28;20498;-82
2022/09/01 03:36:23;;;;;;;28.20;25.20;;;14.50;99.90;;;;;;5039910;28;20473;-82
2022/09/01 03:38:51;;;;;;;28.10;25.40;;;14.40;99.90;;;;;;5049703;28;20541;-82
2022/09/01 03:41:21;;;;;;;30.40;27.27;;;14.40;99.90;;;;;;5049501;28;20459;-82
2022/09/01 03:43:50;;;;;;;29.93;26.97;;;14.40;99.90;;;;;;5048386;28;20512;-82
2022/09/01 03:46:20;;;;;;;33.03;27.43;;;14.40;99.90;;;;;;5049457;28;20469;-82
2022/09/01 03:48:49;;;;;;;28.93;25.97;;;14.40;99.90;;;;;;5048975;28;20599;-82
2022/09/01 03:51:17;;;;;;;30.10;27.07;;;14.40;99.90;;;;;;5049263;28;20465;-82
2022/09/01 03:53:46;;;;;;;27.67;24.73;;;14.30;99.90;;;;;;5049284;28;20486;-83
2022/09/01 03:56:14;;;;;;;29.03;26.33;;;14.30;99.90;;;;;;5049200;28;20453;-83
2022/09/01 03:58:43;;;;;;;32.50;29.00;;;14.30;99.90;;;;;;5047231;28;20461;-83
2022/09/01 04:01:11;;;;;;;33.03;29.47;;;14.30;99.90;;;;;;5049071;28;20444;-82
2022/09/01 04:03:39;;;;;;;30.77;27.63;;;14.30;99.90;;;;;;5048533;28;20445;-82
2022/09/01 04:06:09;;;;;;;28.50;25.50;;;14.30;99.90;;;;;;5048145;28;20544;-83
2022/09/01 04:08:35;;;;;;;29.77;26.60;;;14.20;99.90;;;;;;5047968;28;20532;-83
2022/09/01 04:11:15;;;;;;;31.27;28.00;;;14.20;99.90;;;;;;5047412;28;20845;-82
2022/09/01 04:13:42;;;;;;;30.30;27.10;;;14.30;99.90;;;;;;5047806;28;20925;-82
2022/09/01 04:19:00;;;;;;;29.73;26.67;;;14.20;99.90;;;;;;5046897;28;20514;-82
2022/09/01 04:21:29;;;;;;;29.00;26.37;;;14.20;99.90;;;;;;5047630;28;20453;-83
2022/09/01 04:23:58;;;;;;;32.50;29.20;;;14.20;99.90;;;;;;5047313;28;20441;-83
2022/09/01 04:26:26;;;;;;;27.27;24.57;;;14.20;99.90;;;;;;5047456;28;20479;-82
2022/09/01 04:28:54;;;;;;;27.13;24.23;;;14.20;99.90;;;;;;5046946;28;20650;-82
2022/09/01 04:31:22;;;;;;;25.80;23.33;;;14.20;99.90;;;;;;5046771;28;20517;-83
2022/09/01 04:33:51;;;;;;;28.77;25.67;;;14.20;99.90;;;;;;5047261;28;20499;-82
2022/09/01 04:36:21;;;;;;;29.60;26.53;;;14.20;99.90;;;;;;5047037;28;20567;-82
2022/09/01 04:38:49;;;;;;;30.23;25.87;;;14.20;99.90;;;;;;5047087;28;20491;-82
2022/09/01 04:41:16;;;;;;;31.37;28.07;;;14.20;99.90;;;;;;5046749;28;20732;-82
2022/09/01 04:43:43;;;;;;;29.83;26.63;;;14.20;99.90;;;;;;5046596;28;20445;-83
2022/09/01 04:46:13;;;;;;;31.37;28.00;;;14.20;99.90;;;;;;5046795;28;20457;-82
2022/09/01 04:48:44;;;;;;;31.00;27.53;;;14.20;99.90;;;;;;5046401;28;20454;-82
2022/09/01 04:51:11;;;;;;;31.97;27.00;;;14.20;99.90;;;;;;5047078;28;20902;-82
2022/09/01 04:53:39;;;;;;;32.43;28.73;;;14.20;99.90;;;;;;5046615;28;20492;-82
2022/09/01 04:56:08;;;;;;;35.07;28.37;;;14.20;99.90;;;;;;5046965;28;20445;-82
2022/09/01 04:58:35;;;;;;;37.07;31.57;;;14.20;99.90;;;;;;5046459;28;20467;-82
2022/09/01 05:01:12;;;;;;;37.37;32.10;;;14.20;99.90;;;;;;5046172;28;20449;-82
2022/09/01 05:03:40;;;;;;;43.43;35.83;;;14.30;99.90;;;;;;5046649;28;20952;-82
2022/09/01 05:06:13;;;;;;;41.30;36.50;;;14.30;99.90;;;;;;5045466;28;20951;-84
2022/09/01 05:08:40;;;;;;;40.20;35.80;;;14.30;99.90;;;;;;5041250;28;20797;-84
2022/09/01 05:11:07;;;;;;;46.97;35.00;;;14.40;99.90;;;;;;5037733;28;20440;-84
2022/09/01 05:13:37;;;;;;;39.60;34.13;;;14.50;99.90;;;;;;5038075;28;20569;-84
2022/09/01 05:16:11;;;;;;;41.40;35.70;;;14.50;99.90;;;;;;5037991;28;20498;-84
2022/09/01 05:18:39;;;;;;;42.87;35.00;;;14.60;99.90;;;;;;5038013;28;20458;-83
2022/09/01 05:21:09;;;;;;;38.33;34.20;;;14.70;99.90;;;;;;5038332;28;20486;-84
2022/09/01 05:23:37;;;;;;;40.77;36.37;;;14.70;99.90;;;;;;5038293;28;20431;-84
2022/09/01 05:26:13;;;;;;;40.37;35.90;;;14.70;99.90;;;;;;5037838;28;20455;-84
2022/09/01 05:28:40;;;;;;;37.13;33.37;;;14.60;99.90;;;;;;5038067;28;20461;-84
2022/09/01 05:31:07;;;;;;;43.60;33.90;;;14.80;99.90;;;;;;5037900;28;20930;-83
2022/09/01 05:33:35;;;;;;;38.20;32.93;;;14.80;99.90;;;;;;5037935;28;21020;-84
2022/09/01 05:36:06;;;;;;;36.23;32.03;;;14.90;99.90;;;;;;5037406;28;20458;-84
2022/09/01 05:38:35;;;;;;;40.57;31.97;;;14.90;99.90;;;;;;5037641;28;20466;-84
2022/09/01 05:41:07;;;;;;;37.60;30.20;;;14.90;99.90;;;;;;5037444;28;20480;-84
2022/09/01 05:43:34;;;;;;;34.50;30.90;;;14.90;99.90;;;;;;5038604;28;20619;-84
2022/09/01 05:46:03;;;;;;;35.93;32.20;;;15.00;99.90;;;;;;5037448;28;20512;-84
2022/09/01 05:48:33;;;;;;;34.27;30.43;;;15.00;99.90;;;;;;5037328;28;20816;-84
2022/09/01 05:51:00;;;;;;;37.17;31.50;;;15.00;99.90;;;;;;5037995;28;20454;-84
2022/09/01 05:53:29;;;;;;;34.50;28.80;;;15.10;99.90;;;;;;5037900;28;20481;-84
2022/09/01 05:55:58;;;;;;;37.37;30.87;;;15.10;99.90;;;;;;5038080;28;20481;-84
2022/09/01 05:58:25;;;;;;;32.27;28.90;;;15.10;99.90;;;;;;5037401;28;20466;-84
2022/09/01 06:00:54;;;;;;;35.67;31.90;;;15.10;99.90;;;;;;5037310;28;20737;-84
2022/09/01 06:03:23;;;;;;;37.30;32.60;;;15.20;99.90;;;;;;5037643;28;20441;-84
2022/09/01 06:05:51;;;;;;;37.77;33.00;;;15.20;99.90;;;;;;5037535;28;20457;-84
2022/09/01 06:08:20;;;;;;;35.77;31.80;;;15.30;99.90;;;;;;5037237;28;21034;-84
2022/09/01 06:10:49;;;;;;;40.37;34.73;;;15.30;99.90;;;;;;5037614;28;20481;-84
2022/09/01 06:13:20;;;;;;;38.23;33.50;;;15.50;99.90;;;;;;5037287;28;20484;-84
2022/09/01 06:15:48;;;;;;;35.40;31.60;;;15.50;99.90;;;;;;5037842;28;20457;-84
2022/09/01 06:18:16;;;;;;;30.40;27.07;;;15.60;99.90;;;;;;5037761;28;20482;-84
2022/09/01 06:20:44;;;;;;;31.30;27.83;;;15.70;99.90;;;;;;5042976;28;20481;-83
2022/09/01 06:23:14;;;;;;;37.57;29.87;;;15.90;99.90;;;;;;5057250;28;20505;-83
2022/09/01 06:25:45;;;;;;;32.03;28.73;;;16.00;99.90;;;;;;5058517;28;20451;-82
2022/09/01 06:28:13;;;;;;;30.33;26.77;;;16.10;99.90;;;;;;5057923;28;20478;-83
2022/09/01 06:30:44;;;;;;;33.00;28.47;;;16.30;99.90;;;;;;5058261;28;20482;-83
2022/09/01 06:33:12;;;;;;;30.63;27.13;;;16.30;99.90;;;;;;5057835;28;20489;-82
2022/09/01 06:35:40;;;;;;;31.00;26.60;;;16.50;99.90;;;;;;5050371;28;20500;-84
2022/09/01 06:38:08;;;;;;;29.60;26.47;;;16.60;99.90;;;;;;5045028;28;20551;-84
2022/09/01 06:40:40;;;;;;;30.77;26.67;;;16.80;99.90;;;;;;5045354;28;20847;-83
2022/09/01 06:43:07;;;;;;;27.83;24.73;;;17.00;99.90;;;;;;5046207;28;20979;-84
2022/09/01 06:45:40;;;;;;;27.47;24.57;;;17.10;99.90;;;;;;5046085;28;20521;-83
2022/09/01 06:48:15;;;;;;;26.20;23.60;;;17.20;99.90;;;;;;5046242;28;20476;-83
2022/09/01 06:50:42;;;;;;;26.87;23.57;;;17.30;99.90;;;;;;5045546;28;20485;-83
2022/09/01 06:53:10;;;;;;;25.63;21.83;;;17.40;99.90;;;;;;5045423;28;20488;-83
2022/09/01 06:55:38;;;;;;;25.13;22.67;;;17.60;99.90;;;;;;5046119;28;20455;-84
2022/09/01 06:58:06;;;;;;;24.40;21.80;;;17.70;99.90;;;;;;5046250;28;20492;-83
2022/09/01 07:00:36;;;;;;;22.77;20.30;;;17.80;99.90;;;;;;5048679;28;20460;-83
2022/09/01 07:03:08;;;;;;;22.43;20.33;;;18.00;99.90;;;;;;5051988;28;20438;-83
2022/09/01 07:05:39;;;;;;;22.33;20.00;;;18.10;99.90;;;;;;5047908;28;20451;-83
2022/09/01 07:08:08;;;;;;;22.13;19.80;;;18.20;99.90;;;;;;5045316;28;20474;-83
2022/09/01 07:10:42;;;;;;;20.67;18.70;;;18.30;99.90;;;;;;5045424;28;20531;-82
2022/09/01 07:13:09;;;;;;;20.63;18.63;;;18.40;99.90;;;;;;5044775;28;20518;-84
2022/09/01 07:15:38;;;;;;;21.13;19.13;;;18.50;99.90;;;;;;5044127;28;20453;-84
2022/09/01 07:18:05;;;;;;;18.80;16.90;;;18.60;99.90;;;;;;5044635;28;20479;-84
2022/09/01 07:20:38;;;;;;;16.83;15.23;;;18.60;99.90;;;;;;5051292;28;20539;-83
2022/09/01 07:23:06;;;;;;;20.30;18.50;;;18.80;99.90;;;;;;5057062;28;21218;-83
2022/09/01 07:25:36;;;;;;;17.80;16.30;;;18.90;99.90;;;;;;5057453;28;20440;-83
2022/09/01 07:28:03;;;;;;;14.60;13.40;;;19.00;99.90;;;;;;5056660;28;20527;-82
2022/09/01 07:30:32;;;;;;;13.87;12.67;;;19.20;99.90;;;;;;5056903;28;20474;-83
2022/09/01 07:32:59;;;;;;;14.33;13.10;;;19.20;99.90;;;;;;5056587;28;20972;-83
2022/09/01 07:35:26;;;;;;;13.53;12.33;;;19.30;99.90;;;;;;5056709;28;20512;-83
2022/09/01 07:37:54;;;;;;;13.27;12.17;;;19.30;99.90;;;;;;5056278;28;20457;-83
2022/09/01 07:40:27;;;;;;;12.10;10.93;;;19.30;99.90;;;;;;5050978;28;20949;-84
2022/09/01 07:42:56;;;;;;;13.43;12.30;;;19.30;99.90;;;;;;5040043;28;20466;-84
2022/09/01 07:45:24;;;;;;;12.67;11.57;;;19.40;99.90;;;;;;5054674;28;20464;-83
2022/09/01 07:47:52;;;;;;;12.87;11.77;;;19.40;99.90;;;;;;5056282;28;20520;-83
2022/09/01 07:50:19;;;;;;;13.57;12.50;;;19.50;99.90;;;;;;5048300;28;20453;-83
2022/09/01 07:52:48;;;;;;;13.67;12.47;;;19.60;99.90;;;;;;5042917;28;20456;-84
2022/09/01 07:55:16;;;;;;;14.87;13.67;;;19.60;99.90;;;;;;5041526;28;20488;-84
2022/09/01 07:57:45;;;;;;;16.03;14.53;;;19.60;99.90;;;;;;5039226;28;20490;-86
2022/09/01 08:00:14;;;;;;;15.30;14.00;;;19.60;99.90;;;;;;5039851;28;20797;-85
2022/09/01 08:02:42;;;;;;;14.43;13.13;;;19.70;99.90;;;;;;5039279;28;20463;-84
2022/09/01 08:05:11;;;;;;;14.13;12.83;;;19.80;99.90;;;;;;5039816;28;20501;-85
2022/09/01 08:07:38;;;;;;;16.10;14.53;;;19.80;99.90;;;;;;5039303;28;20475;-85
2022/09/01 08:10:07;;;;;;;15.20;13.80;;;19.90;99.90;;;;;;5039788;28;20452;-85
2022/09/01 08:12:34;;;;;;;15.10;13.70;;;20.00;99.90;;;;;;5039482;28;20458;-85
2022/09/01 08:15:03;;;;;;;13.83;12.63;;;20.00;99.90;;;;;;5038829;28;20485;-85
2022/09/01 08:17:30;;;;;;;12.73;11.60;;;20.10;99.90;;;;;;5038908;28;20481;-86
2022/09/01 08:19:57;;;;;;;14.20;12.70;;;20.20;99.90;;;;;;5038807;28;20449;-86
2022/09/01 08:22:24;;;;;;;14.60;13.20;;;20.10;99.90;;;;;;5038605;28;20453;-85
2022/09/01 08:24:51;;;;;;;15.70;14.10;;;20.20;99.90;;;;;;5038486;28;20449;-85
2022/09/01 08:27:18;;;;;;;13.50;12.20;;;20.40;99.90;;;;;;5040689;28;20476;-85
2022/09/01 08:29:45;;;;;;;14.17;12.93;;;20.50;99.90;;;;;;5042826;28;20472;-85
2022/09/01 08:32:13;;;;;;;14.03;12.73;;;20.60;99.90;;;;;;5043545;28;20464;-85
2022/09/01 08:34:42;;;;;;;15.10;13.70;;;20.70;99.90;;;;;;5042109;28;20500;-85
2022/09/01 08:37:09;;;;;;;14.47;12.60;;;20.60;99.90;;;;;;5042044;28;20556;-86
2022/09/01 08:39:35;;;;;;;14.27;13.07;;;20.80;99.90;;;;;;5041517;28;20945;-85
2022/09/01 08:42:12;;;;;;;13.40;12.20;;;21.00;99.90;;;;;;5041179;28;20453;-85
2022/09/01 08:44:44;;;;;;;13.50;12.20;;;21.10;99.90;;;;;;5040728;28;20429;-86
2022/09/01 08:47:16;;;;;;;66.93;60.50;;;21.30;99.90;;;;;;5040030;28;20473;-86
2022/09/01 08:49:45;;;;;;;15.87;14.53;;;21.40;99.90;;;;;;5040711;28;20430;-86
2022/09/01 08:52:21;;;;;;;58.47;53.33;;;21.50;99.90;;;;;;5039273;28;20453;-86
2022/09/01 08:54:51;;;;;;;20.23;18.43;;;21.60;99.90;;;;;;5042721;28;20491;-85
2022/09/01 08:57:22;;;;;;;47.40;43.27;;;21.80;99.90;;;;;;5041130;28;20474;-86
2022/09/01 08:59:57;;;;;;;13.80;12.47;;;21.90;99.90;;;;;;5041323;28;20455;-86
2022/09/01 09:02:38;;;;;;;13.20;12.00;;;22.00;99.90;;;;;;5042124;28;20922;-86
2022/09/01 09:05:15;;;;;;;10.50;9.60;;;22.10;99.90;;;;;;5040349;28;20454;-87
2022/09/01 09:11:19;;;;;;;11.83;10.70;;;22.30;99.90;;;;;;4974338;28;20850;-87
2022/09/01 09:14:11;;;;;;;19.23;17.47;;;22.40;99.90;;;;;;4972821;28;21084;-90
2022/09/01 09:16:41;;;;;;;22.13;20.20;;;22.50;99.90;;;;;;5025034;28;20469;-89
2022/09/01 09:19:22;;;;;;;16.97;15.57;;;22.60;99.90;;;;;;5041238;28;20460;-90
2022/09/01 09:21:53;;;;;;;13.33;12.23;;;22.70;99.90;;;;;;5041322;28;20437;-89
2022/09/01 09:24:27;;;;;;;9.60;8.60;;;22.80;99.90;;;;;;5033512;28;20433;-88
2022/09/01 09:26:59;;;;;;;7.60;7.10;;;23.00;99.90;;;;;;5033787;28;20470;-89
2022/09/01 09:29:28;;;;;;;9.00;8.30;;;23.20;99.90;;;;;;5034754;28;20437;-89
2022/09/01 09:39:41;;;;;;;15.57;14.30;;;23.70;99.90;;;;;;5034319;28;20944;-90
2022/09/01 09:42:17;;;;;;;8.13;7.60;;;23.80;99.90;;;;;;4919469;29;20981;-90
2022/09/01 09:44:51;;;;;;;8.73;8.13;;;23.80;99.90;;;;;;4920104;29;20438;-89
2022/09/01 09:50:32;;;;;;;14.87;13.63;;;23.80;99.90;;;;;;5043697;28;20464;-89
2022/09/01 09:53:31;;;;;;;15.00;13.73;;;23.70;99.90;;;;;;5034611;28;20457;-89
2022/09/01 10:01:57;;;;;;;7.80;7.00;;;23.80;99.90;;;;;;5034694;28;20457;-87
2022/09/01 10:05:01;;;;;;;;;;;;;;;;;;;;;
2022/09/01 10:11:09;;;;;;;6.90;6.40;;;24.00;99.30;;;;;;5047577;28;20530;-86
2022/09/01 10:13:42;;;;;;;6.33;5.83;;;24.10;99.00;;;;;;5044518;28;20971;-86
2022/09/01 10:16:22;;;;;;;11.10;10.13;;;24.10;99.20;;;;;;5049749;28;20430;-90
2022/09/01 10:18:51;;;;;;;8.27;7.67;;;24.20;99.60;;;;;;5034130;28;20957;-85
2022/09/01 10:22:13;;;;;;;11.00;10.10;;;24.30;98.30;;;;;;5033109;28;20544;-87
2022/09/01 10:24:43;;;;;;;6.20;5.80;;;24.20;97.20;;;;;;5041399;28;20512;-84
2022/09/01 10:27:23;;;;;;;6.70;6.20;;;24.10;96.20;;;;;;5041039;28;20485;-85
2022/09/01 10:29:54;;;;;;;5.10;4.70;;;24.10;97.20;;;;;;5042281;28;20442;-84
2022/09/01 10:32:33;;;;;;;5.13;4.83;;;24.00;96.80;;;;;;5042448;28;20457;-85
2022/09/01 10:35:26;;;;;;;5.70;5.20;;;23.90;96.60;;;;;;5042245;28;20489;-85
2022/09/01 10:38:47;;;;;;;;;;;;;;;;;;;;;
2022/09/01 10:41:47;;;;;;;5.40;5.00;;;24.00;97.10;;;;;;5036066;28;20655;-85
2022/09/01 10:44:29;;;;;;;4.90;4.60;;;24.10;96.10;;;;;;5037257;28;20447;-89
2022/09/01 10:47:15;;;;;;;4.83;4.53;;;24.00;96.90;;;;;;5032721;28;20492;-88
2022/09/01 10:50:00;;;;;;;4.37;4.10;;;24.10;97.00;;;;;;5033288;28;20486;-89
2022/09/01 10:53:11;;;;;;;4.83;4.43;;;24.30;96.70;;;;;;5033473;28;20907;-88
2022/09/01 10:55:48;;;;;;;8.07;7.47;;;24.40;97.20;;;;;;5032837;28;20909;-88
2022/09/01 10:58:47;;;;;;;7.40;7.00;;;24.70;96.80;;;;;;5032752;28;21002;-88
2022/09/01 11:05:15;;;;;;;4.37;4.07;;;25.30;95.30;;;;;;5048536;28;20475;-85
2022/09/01 11:08:09;;;;;;;4.80;4.40;;;25.40;94.50;;;;;;5049291;28;20473;-86
2022/09/01 11:14:58;;;;;;;;;;;;;;;;;;;;;
2022/09/01 11:17:46;;;;;;;5.30;5.00;;;27.20;93.60;;;;;;5007649;28;20987;-84
2022/09/01 11:24:31;;;;;;;4.17;3.70;;;28.80;87.40;;;;;;5025122;28;20980;-84
2022/09/01 11:27:28;;;;;;;4.00;3.80;;;29.80;85.80;;;;;;5035554;28;20828;-83
2022/09/01 11:30:23;;;;;;;3.63;3.43;;;30.30;79.60;;;;;;5017298;28;20483;-84
2022/09/01 11:33:34;;;;;;;11.97;11.13;;;30.70;76.60;;;;;;5037396;28;20469;-89
2022/09/01 11:36:06;;;;;;;5.37;5.00;;;30.60;75.20;;;;;;4936405;29;20506;-88
2022/09/01 11:38:47;;;;;;;9.23;8.63;;;30.40;74.90;;;;;;4935954;29;20490;-88
2022/09/01 11:41:23;;;;;;;5.37;4.90;;;30.20;77.10;;;;;;5001180;28;20453;-87
2022/09/01 11:43:54;;;;;;;4.40;4.20;;;29.90;75.30;;;;;;5036490;28;20436;-86
2022/09/01 11:49:29;;;;;;;7.20;6.70;;;30.40;73.20;;;;;;5018586;28;20435;-89
2022/09/01 11:51:58;;;;;;;7.90;7.43;;;30.70;73.90;;;;;;5035979;28;20414;-85
2022/09/01 11:54:25;;;;;;;5.50;5.10;;;31.30;73.80;;;;;;5035137;28;20936;-85
2022/09/01 11:56:54;;;;;;;4.50;4.30;;;31.70;69.60;;;;;;5034806;28;20492;-85
2022/09/01 11:59:35;;;;;;;5.00;3.87;;;32.00;68.80;;;;;;5035035;28;20842;-85
2022/09/01 12:02:02;;;;;;;4.83;4.53;;;32.30;65.60;;;;;;5035523;28;20457;-84
2022/09/01 12:04:35;;;;;;;4.43;4.13;;;32.30;66.00;;;;;;5039554;28;20538;-85
2022/09/01 12:07:04;;;;;;;6.10;5.70;;;32.20;65.60;;;;;;5039237;28;20562;-85
2022/09/01 12:09:36;;;;;;;4.93;4.53;;;31.90;65.80;;;;;;5048104;28;20798;-85
2022/09/01 12:12:06;;;;;;;4.50;4.20;;;31.50;67.70;;;;;;5035995;28;20456;-85
2022/09/01 12:14:33;;;;;;;4.87;4.57;;;31.60;67.40;;;;;;5036639;28;20939;-85
2022/09/01 12:17:15;;;;;;;4.20;3.90;;;31.50;65.30;;;;;;5034854;28;20486;-85
2022/09/01 12:19:42;;;;;;;4.23;4.03;;;31.30;66.50;;;;;;5018043;28;20487;-84
2022/09/01 12:22:14;;;;;;;5.10;4.77;;;31.30;67.80;;;;;;5035236;28;20450;-85
2022/09/01 12:24:45;;;;;;;4.93;4.53;;;31.70;67.50;;;;;;5035913;28;20474;-85
2022/09/01 12:27:14;;;;;;;5.60;5.20;;;32.40;64.70;;;;;;5035226;28;20482;-85
2022/09/01 12:29:42;;;;;;;4.73;4.43;;;33.20;62.30;;;;;;5035671;28;20459;-85
2022/09/01 12:32:10;;;;;;;4.30;4.00;;;33.50;58.80;;;;;;5036330;28;20463;-85
2022/09/01 12:34:46;;;;;;;3.80;3.60;;;33.70;59.50;;;;;;5036154;28;20457;-85
2022/09/01 12:37:23;;;;;;;4.23;3.93;;;34.00;56.90;;;;;;5035978;28;20460;-85
2022/09/01 12:39:53;;;;;;;4.93;4.13;;;33.80;57.20;;;;;;5035279;28;20500;-88
2022/09/01 12:42:28;;;;;;;3.87;3.60;;;34.10;58.10;;;;;;5034282;28;20469;-88
2022/09/01 12:44:57;;;;;;;15.87;14.70;;;34.80;57.40;;;;;;5035114;28;20476;-88
2022/09/01 12:47:48;;;;;;;5.80;5.40;;;35.40;55.80;;;;;;5035683;28;20461;-84
2022/09/01 12:50:46;;;;;;;3.90;3.70;;;36.20;53.20;;;;;;5035640;28;20448;-84
2022/09/01 12:53:33;;;;;;;4.73;4.43;;;36.70;51.80;;;;;;5034586;28;20488;-84
2022/09/01 12:56:06;;;;;;;4.27;3.97;;;37.30;50.10;;;;;;5034256;28;20440;-84
2022/09/01 12:58:35;;;;;;;4.10;3.90;;;37.50;48.50;;;;;;5038028;28;20457;-84
2022/09/01 13:01:06;;;;;;;3.70;3.50;;;37.90;48.70;;;;;;5036096;28;20457;-84
2022/09/01 13:03:34;;;;;;;4.63;4.23;;;38.20;47.60;;;;;;5034401;28;20453;-84
2022/09/01 13:06:02;;;;;;;4.33;4.13;;;37.80;47.00;;;;;;5042535;28;20532;-84
2022/09/01 13:08:31;;;;;;;4.93;4.63;;;37.30;47.30;;;;;;5039363;28;20449;-83
2022/09/01 13:11:03;;;;;;;4.40;4.20;;;36.40;47.70;;;;;;5035052;28;20453;-84
2022/09/01 13:13:30;;;;;;;5.07;4.77;;;35.50;48.90;;;;;;5034939;28;20797;-84
2022/09/01 13:16:03;;;;;;;4.73;4.43;;;34.80;49.60;;;;;;5034715;28;20499;-84
2022/09/01 13:18:30;;;;;;;4.27;3.97;;;34.00;50.50;;;;;;5035539;28;20459;-84
2022/09/01 13:20:58;;;;;;;3.70;3.50;;;33.40;51.80;;;;;;5035150;28;20457;-84
2022/09/01 13:23:25;;;;;;;3.97;3.77;;;33.00;51.80;;;;;;5034857;28;20820;-84
2022/09/01 13:25:52;;;;;;;3.77;3.47;;;33.00;53.00;;;;;;5035731;28;21039;-85
2022/09/01 13:28:23;;;;;;;3.97;3.67;;;33.20;50.90;;;;;;5034787;28;20483;-84
2022/09/01 13:30:54;;;;;;;3.80;3.50;;;33.60;50.60;;;;;;5033591;28;20457;-84
2022/09/01 13:33:23;;;;;;;3.27;3.10;;;34.30;49.60;;;;;;5033706;28;20465;-85
2022/09/01 13:35:51;;;;;;;4.50;4.20;;;35.10;49.30;;;;;;5035175;28;20460;-85
2022/09/01 13:38:19;;;;;;;3.93;3.63;;;35.60;47.40;;;;;;5040317;28;20469;-83
2022/09/01 13:40:47;;;;;;;4.70;4.30;;;36.00;48.10;;;;;;5036333;28;20495;-82
2022/09/01 13:43:14;;;;;;;4.40;4.20;;;36.50;46.80;;;;;;5033967;28;20464;-82